Tropical Cyclones
[Index]
Main Index Home Page Stock Weather Photos Extreme Storms Discussion Storm News and Storm Chasing Reports Tropical Cyclones / Hurricanes / Typhoons Weather Data and Links Wild Fires / Bushfires Weather Observation Techniques Weather Picture Catalogue Tornado Pictures and Reports Stock Video Footage and DVDs for sale
Season 2000-2001 Tropical Cyclone ALISTAIR Track Map
Season 2000-2001 Summaries: [BoM-AU] [JTWC-AU] [JTWC-SIO] [JTWC-SPAC] [JTWC-SH]
<<- Previous TC | JTWC 2000-2001 Season | Next TC ->>

click for intensity scale information  Lat/long Grid: Show Hide

 Date Labels: Show Hide

Joint Typhoon Warning Centre Cyclone Data

Name: ALISTAIR

16 Apr 2001 00:00 UTC to 23 Apr 2001 12:00 UTC

    date/time    lat    long     hPa   cat  kts
2001-04-16 00    8.3   135.4                  25          
2001-04-16 06    8.6   134.5                  30          
2001-04-16 12    9.0   133.6                  35          
2001-04-16 18    9.5   132.6                  35          
2001-04-17 00   10.1   131.5                  35          
2001-04-17 06   10.6   130.4            1     40          
2001-04-17 12   11.1   129.2            1     40          
2001-04-17 18   11.8   128.1            1     45          
2001-04-18 00   12.6   126.9            1     50          
2001-04-18 06   13.4   125.6            1     50          
2001-04-18 12   14.2   124.4            2     55          
2001-04-18 18   15.0   123.2            2     60          
2001-04-19 00   15.9   122.1            2     65          
2001-04-19 06   16.5   121.0            2     65          
2001-04-19 12   17.0   119.7            2     60          
2001-04-19 18   17.6   118.0            2     55          
2001-04-20 00   18.0   116.4            2     55          
2001-04-20 06   18.4   114.8            1     45          
2001-04-20 12   18.8   113.7            1     45          
2001-04-20 18   19.4   112.8            1     40          
2001-04-21 00   20.0   111.8            1     40          
2001-04-21 06   20.5   110.7                  35          
2001-04-21 12   21.1   110.0                  35          
2001-04-21 18   21.4   109.6                  25          
2001-04-22 00   21.9   109.2                  25          
2001-04-22 06   22.5   109.0                  25          
2001-04-22 12   23.1   109.2                  25          
2001-04-22 18   23.6   109.5                  25          
2001-04-23 00   24.1   109.7                  25          
2001-04-23 06   24.2   110.3                  25          
2001-04-23 12   24.0   111.8                  25          
Winds are 1-min average.

Tropical cyclone tracks developed by Michael Bath using data from the Joint Typhoon Warning Centre Best Tracks and Google Maps.


[Australian Severe Weather index] [Copyright Notice] [Email Contacts] [Search This Site] [Privacy Policy]
Document: tropical_cyclone_alistair.htm Updated: 28 June 2017